The Florida Keys Marathon Airport
KMTH : rendu visible

Aérodrome :











RETROUVEZ-NOUS SUR...

 
LOGIN :

S'inscrire | Disclaimer

   EN    FR    IT 

 









Légende :    VFR   VFR Marginal   IFR   IFR Intensif   IFR Très Intensif
Visi : 
Plafond : 
>= 8 km
>= 3000ft
5 à 8 km
1000 à 3000 ft
1500m à 5 km
500 à 1000 ft
800 à 1500m
200 à 500 ft
< 800m
< 200 ft
Symboles :   Orages  Brouillard  Fortes neiges  Fortes précipitations  Vent > 20 kt






- Altitude de l'aérodrome : 5 ft


KMTH - The Florida Keys Marathon

DERNIER METAR :
  • 290904Z AUTO 14007KT 10SM FEW022 25/21 A3004 RMK AO2 T02500206

METARs EXPIRÉS :
  • 290831Z AUTO 14006KT 10SM SCT023 SCT029 25/21 A3003 RMK AO2 T02500206
  • 290819Z AUTO 14009G15KT 10SM BKN022 BKN029 25/21 A3003 RMK AO2 T02500206
  • 290753Z AUTO 13009KT 10SM FEW021 25/21 A3003 RMK AO2 SLP167 T02500206
  • 290653Z AUTO 12010KT 10SM FEW020 25/20 A3003 RMK AO2 SLP168 T02500200

TAF KMTH
Valide du 29 à 08h jusqu'au 30 à 06h UTC


290814Z 2908/3006 13008G15KT P6SM SCT025
TEMPO 2908/2912 BKN025



MET'MAP, la Météo Aéronautique d'un coup d'oeil ! - Copyright ORBIFLY Décembre 2007 - Disclaimer

ORBIFLY MET'MAP TEAM :

Programmation & Développement : Alexandra Zaïnal
Sur une idée originale de : Baudouin d'Aumeries
Assistance à la programmation : Marc-Olivier Méhu
Soutien technique & logistique : Manuel Goepfert

Contact : metmap@orbifly.com




SOURCES & CREDITS :

   NOAA       Earth
Advisory